Time;durP1;ratioP1;P1;durP2;ratioP2;P2;SDS_P1;SDS_P2;PMS_P1;PMS_P2;Temp;Humidity;BMP_temperature;BMP_pressure;BME280_temperature;BME280_humidity;BME280_pressure;Samples;Min_cycle;Max_cycle;Signal;HPM_P1;HPM_P2
2021/11/22 00:01:17;;;;;;;70.53;17.55;;;9.00;95.10;;;;;;5047797;28;20028;-60
2021/11/22 00:03:43;;;;;;;62.75;17.02;;;9.00;95.10;;;;;;5045231;28;20523;-60
2021/11/22 00:06:09;;;;;;;77.07;18.25;;;9.00;95.00;;;;;;5063785;28;20155;-61
2021/11/22 00:08:34;;;;;;;70.55;18.02;;;9.00;95.00;;;;;;5065312;28;20413;-61
2021/11/22 00:11:00;;;;;;;80.53;18.58;;;9.00;95.00;;;;;;5030543;28;20078;-60
2021/11/22 00:13:25;;;;;;;66.32;18.35;;;9.00;95.00;;;;;;5047881;28;20031;-60
2021/11/22 00:15:53;;;;;;;59.60;16.15;;;9.00;95.00;;;;;;5046264;28;20024;-60
2021/11/22 00:18:19;;;;;;;66.07;17.40;;;8.90;95.00;;;;;;5046701;28;20506;-60
2021/11/22 00:20:45;;;;;;;68.32;17.02;;;9.00;95.00;;;;;;5064540;28;20151;-60
2021/11/22 00:23:11;;;;;;;65.93;17.27;;;9.00;95.00;;;;;;5013678;28;20028;-61
2021/11/22 00:25:36;;;;;;;55.95;15.20;;;8.90;95.00;;;;;;5030315;28;20017;-61
2021/11/22 00:28:02;;;;;;;62.58;16.00;;;9.00;94.90;;;;;;5026466;28;20047;-61
2021/11/22 00:30:27;;;;;;;51.47;15.88;;;8.90;94.90;;;;;;5063351;28;20456;-60
2021/11/22 00:32:53;;;;;;;65.03;16.23;;;9.00;94.90;;;;;;5029448;28;20020;-61
2021/11/22 00:35:19;;;;;;;71.15;16.30;;;8.90;94.80;;;;;;5046062;28;20597;-61
2021/11/22 00:37:49;;;;;;;57.08;16.08;;;8.90;94.80;;;;;;5047332;28;20529;-60
2021/11/22 00:40:15;;;;;;;56.15;15.35;;;9.00;94.80;;;;;;5032207;28;20025;-60
2021/11/22 00:42:43;;;;;;;59.38;16.33;;;8.90;94.80;;;;;;5029641;28;20074;-61
2021/11/22 00:45:09;;;;;;;52.10;15.15;;;8.90;94.80;;;;;;5045326;28;20032;-61
2021/11/22 00:47:36;;;;;;;63.30;15.93;;;8.90;94.80;;;;;;5045066;28;20086;-61
2021/11/22 00:50:02;;;;;;;48.33;14.65;;;8.90;94.80;;;;;;5028355;28;20373;-60
2021/11/22 00:52:28;;;;;;;43.88;15.25;;;8.90;94.80;;;;;;5031567;28;20130;-60
2021/11/22 00:54:53;;;;;;;57.03;16.13;;;8.90;94.80;;;;;;5047000;28;20032;-61
2021/11/22 00:57:19;;;;;;;52.22;15.90;;;8.90;94.80;;;;;;5043189;28;20031;-60
2021/11/22 00:59:44;;;;;;;46.00;14.18;;;8.90;94.90;;;;;;5028182;28;20029;-61
2021/11/22 01:02:10;;;;;;;57.60;14.98;;;8.90;94.80;;;;;;5043797;28;20043;-61
2021/11/22 01:04:37;;;;;;;50.15;15.90;;;8.90;94.80;;;;;;5064384;28;20133;-61
2021/11/22 01:07:03;;;;;;;52.25;16.42;;;8.90;94.80;;;;;;5063904;28;20035;-61
2021/11/22 01:09:29;;;;;;;65.72;18.95;;;8.80;94.80;;;;;;5045063;28;20067;-61
2021/11/22 01:11:55;;;;;;;44.08;17.60;;;8.90;94.80;;;;;;5044132;28;20429;-61
2021/11/22 01:14:20;;;;;;;55.72;17.52;;;8.90;94.80;;;;;;5044634;28;20381;-61
2021/11/22 01:16:46;;;;;;;55.85;15.70;;;8.90;95.00;;;;;;5043862;28;20129;-60
2021/11/22 01:19:11;;;;;;;50.50;17.30;;;8.80;94.70;;;;;;5046135;28;20660;-61
2021/11/22 01:21:37;;;;;;;41.53;15.80;;;8.90;94.70;;;;;;5062914;28;20086;-61
2021/11/22 01:24:02;;;;;;;49.28;16.40;;;8.90;94.70;;;;;;5045950;28;20036;-61
2021/11/22 01:26:28;;;;;;;89.22;19.30;;;8.80;94.70;;;;;;5063581;28;20468;-61
2021/11/22 01:28:54;;;;;;;59.03;16.75;;;8.80;94.70;;;;;;5063354;28;20044;-61
2021/11/22 01:31:19;;;;;;;129.77;23.40;;;8.80;94.70;;;;;;5044719;28;20084;-61
2021/11/22 01:33:45;;;;;;;116.65;22.27;;;8.80;94.70;;;;;;5029490;28;20028;-61
2021/11/22 01:36:10;;;;;;;78.70;18.10;;;8.80;94.70;;;;;;5044085;28;20495;-60
2021/11/22 01:38:36;;;;;;;65.20;19.17;;;8.80;94.70;;;;;;5045068;28;20025;-61
2021/11/22 01:41:02;;;;;;;98.22;19.95;;;8.80;94.80;;;;;;5044987;28;20950;-60
2021/11/22 01:43:28;;;;;;;70.57;17.92;;;8.80;94.80;;;;;;5029743;28;20036;-61
2021/11/22 01:45:54;;;;;;;70.25;19.70;;;8.80;94.70;;;;;;5045523;28;20468;-61
2021/11/22 01:48:19;;;;;;;91.97;19.25;;;8.80;94.70;;;;;;5063029;28;20106;-61
2021/11/22 01:50:47;;;;;;;75.40;18.52;;;8.80;94.70;;;;;;5011426;28;20045;-61
2021/11/22 01:53:13;;;;;;;59.35;17.85;;;8.80;94.70;;;;;;5027781;28;20484;-61
2021/11/22 01:55:39;;;;;;;64.28;18.65;;;8.80;94.70;;;;;;5045544;28;20111;-60
2021/11/22 01:58:04;;;;;;;57.15;18.40;;;8.80;95.00;;;;;;5046102;28;20060;-61
2021/11/22 02:00:34;;;;;;;64.57;17.30;;;8.80;94.70;;;;;;5029405;28;20105;-61
2021/11/22 02:03:00;;;;;;;61.85;16.70;;;8.80;94.70;;;;;;5026851;28;20041;-61
2021/11/22 02:05:25;;;;;;;50.38;16.95;;;8.80;94.70;;;;;;5043794;28;20618;-61
2021/11/22 02:07:51;;;;;;;53.72;17.67;;;8.80;94.70;;;;;;5017757;28;20059;-61
2021/11/22 02:10:17;;;;;;;50.58;17.02;;;8.80;94.60;;;;;;5029834;28;20482;-60
2021/11/22 02:12:42;;;;;;;55.38;16.45;;;8.80;94.60;;;;;;5029180;28;20024;-63
2021/11/22 02:15:09;;;;;;;57.67;16.42;;;8.80;94.60;;;;;;5061850;28;20036;-60
2021/11/22 02:17:36;;;;;;;49.10;16.58;;;8.80;94.60;;;;;;5044686;28;20059;-61
2021/11/22 02:20:03;;;;;;;49.58;16.23;;;8.80;94.50;;;;;;5012152;28;20364;-60
2021/11/22 02:22:30;;;;;;;59.45;16.88;;;8.80;94.50;;;;;;5044678;28;20024;-60
2021/11/22 02:24:56;;;;;;;55.53;17.27;;;8.80;94.60;;;;;;5064157;28;20119;-61
2021/11/22 02:27:22;;;;;;;51.33;16.67;;;8.70;94.60;;;;;;5063804;28;20048;-61
2021/11/22 02:29:47;;;;;;;52.88;16.67;;;8.80;94.70;;;;;;5062745;28;20534;-60
2021/11/22 02:32:13;;;;;;;46.80;15.30;;;8.80;94.70;;;;;;5062349;28;20060;-61
2021/11/22 02:34:39;;;;;;;39.05;14.85;;;8.80;94.70;;;;;;5044243;28;20038;-61
2021/11/22 02:37:04;;;;;;;54.50;16.42;;;8.80;94.70;;;;;;5064077;28;20112;-60
2021/11/22 02:39:30;;;;;;;49.03;15.52;;;8.80;94.80;;;;;;5067668;28;20475;-60
2021/11/22 02:41:55;;;;;;;55.10;17.10;;;8.80;94.80;;;;;;5066709;28;20040;-61
2021/11/22 02:44:21;;;;;;;55.40;17.30;;;8.80;94.80;;;;;;5047815;28;20721;-61
2021/11/22 02:46:47;;;;;;;43.47;15.15;;;8.80;94.90;;;;;;5048782;28;20043;-62
2021/11/22 02:49:12;;;;;;;43.08;14.95;;;8.70;94.80;;;;;;5031749;28;20067;-61
2021/11/22 02:51:39;;;;;;;45.15;14.85;;;8.80;94.80;;;;;;5049531;28;20475;-61
2021/11/22 02:54:05;;;;;;;43.03;14.77;;;8.70;94.80;;;;;;5031747;28;20024;-61
2021/11/22 02:56:32;;;;;;;39.35;15.60;;;8.70;94.80;;;;;;5066737;28;20094;-60
2021/11/22 02:58:58;;;;;;;41.72;14.60;;;8.70;94.80;;;;;;5048219;28;20028;-61
2021/11/22 03:01:23;;;;;;;39.60;14.90;;;8.70;94.80;;;;;;5064376;28;20032;-61
2021/11/22 03:03:49;;;;;;;40.92;15.13;;;8.70;94.80;;;;;;5033303;28;20102;-61
2021/11/22 03:06:16;;;;;;;40.97;14.32;;;8.70;94.80;;;;;;5048937;28;20052;-61
2021/11/22 03:08:42;;;;;;;41.50;14.85;;;8.70;94.80;;;;;;5031590;28;20035;-61
2021/11/22 03:11:08;;;;;;;31.95;15.05;;;8.70;94.80;;;;;;5048119;28;20032;-61
2021/11/22 03:13:33;;;;;;;32.17;15.23;;;8.70;94.80;;;;;;5048653;28;20032;-61
2021/11/22 03:15:59;;;;;;;34.53;15.13;;;8.70;94.70;;;;;;5064799;28;20121;-61
2021/11/22 03:18:25;;;;;;;36.22;15.80;;;8.70;94.70;;;;;;5047988;28;20051;-60
2021/11/22 03:20:50;;;;;;;44.70;15.00;;;8.70;94.70;;;;;;5030968;28;20024;-63
2021/11/22 03:23:16;;;;;;;32.80;14.63;;;8.70;94.70;;;;;;5047436;28;20021;-61
2021/11/22 03:25:41;;;;;;;35.80;14.13;;;8.70;94.70;;;;;;5064531;28;20476;-61
2021/11/22 03:28:07;;;;;;;35.42;14.95;;;8.70;94.60;;;;;;5048936;28;20119;-60
2021/11/22 03:30:33;;;;;;;25.35;13.82;;;8.70;94.60;;;;;;5049108;28;20082;-61
2021/11/22 03:32:58;;;;;;;34.05;15.00;;;8.70;94.90;;;;;;5031229;28;20135;-61
2021/11/22 03:35:24;;;;;;;38.53;15.90;;;8.70;94.60;;;;;;5029385;28;20029;-61
2021/11/22 03:37:50;;;;;;;30.58;13.95;;;8.60;94.60;;;;;;5042491;28;20564;-61
2021/11/22 03:40:15;;;;;;;31.60;13.30;;;8.70;94.60;;;;;;5049152;28;20044;-61
2021/11/22 03:45:25;;;;;;;27.63;12.90;;;8.60;94.60;;;;;;5050173;28;20685;-61
2021/11/22 03:47:50;;;;;;;32.00;14.05;;;8.70;94.80;;;;;;5046785;28;20036;-61
2021/11/22 03:50:16;;;;;;;28.13;13.65;;;8.60;94.50;;;;;;5029477;28;20058;-61
2021/11/22 03:52:42;;;;;;;24.92;13.35;;;8.60;94.80;;;;;;5031397;28;20149;-61
2021/11/22 03:55:07;;;;;;;27.05;14.00;;;8.60;94.50;;;;;;5067160;28;20161;-61
2021/11/22 03:57:33;;;;;;;33.25;14.57;;;8.60;94.50;;;;;;5030392;28;20017;-61
2021/11/22 03:59:58;;;;;;;29.83;14.07;;;8.60;94.50;;;;;;5046331;28;20024;-61
2021/11/22 04:02:24;;;;;;;28.27;14.80;;;8.60;94.50;;;;;;5040902;28;20040;-61
2021/11/22 04:04:49;;;;;;;30.55;14.23;;;8.60;94.50;;;;;;5027759;28;20047;-61
2021/11/22 04:07:15;;;;;;;33.67;14.60;;;8.60;94.50;;;;;;5047454;28;20028;-61
2021/11/22 04:09:40;;;;;;;31.52;15.02;;;8.60;94.50;;;;;;5066131;28;20028;-61
2021/11/22 04:12:06;;;;;;;23.83;13.13;;;8.60;94.50;;;;;;5047224;28;20236;-61
2021/11/22 04:14:32;;;;;;;29.23;14.48;;;8.60;94.40;;;;;;5046895;28;20915;-61
2021/11/22 04:16:57;;;;;;;25.83;14.32;;;8.60;94.40;;;;;;5046623;28;20032;-61
2021/11/22 04:19:23;;;;;;;32.42;14.15;;;8.60;94.50;;;;;;5047979;28;20056;-62
2021/11/22 04:21:48;;;;;;;30.60;14.52;;;8.60;94.40;;;;;;5048707;28;20059;-60
2021/11/22 04:24:14;;;;;;;23.50;13.32;;;8.50;94.40;;;;;;5047960;28;20020;-61
2021/11/22 04:26:39;;;;;;;24.27;13.68;;;8.60;94.40;;;;;;5029740;28;20032;-61
2021/11/22 04:29:05;;;;;;;25.70;13.63;;;8.50;94.40;;;;;;5029939;28;20070;-61
2021/11/22 04:31:30;;;;;;;25.95;12.82;;;8.50;94.40;;;;;;5047302;28;20054;-60
2021/11/22 04:33:56;;;;;;;31.65;13.48;;;8.50;94.40;;;;;;5047803;28;20168;-60
2021/11/22 04:36:21;;;;;;;33.35;13.05;;;8.50;94.30;;;;;;5065726;28;20031;-60
2021/11/22 04:38:47;;;;;;;23.27;12.65;;;8.50;94.30;;;;;;5046837;28;20107;-60
2021/11/22 04:41:12;;;;;;;32.83;13.30;;;8.50;94.30;;;;;;5013800;28;20028;-61
2021/11/22 04:43:38;;;;;;;29.83;13.07;;;8.50;94.30;;;;;;5045605;28;20064;-60
2021/11/22 04:46:03;;;;;;;24.67;12.52;;;8.50;94.30;;;;;;5045822;28;20119;-61
2021/11/22 04:48:29;;;;;;;23.50;12.68;;;8.50;94.30;;;;;;5046890;28;20478;-61
2021/11/22 04:50:55;;;;;;;26.33;12.55;;;8.50;94.30;;;;;;5045242;28;20116;-61
2021/11/22 04:53:20;;;;;;;26.88;12.52;;;8.40;94.30;;;;;;5046164;28;20404;-60
2021/11/22 04:55:46;;;;;;;22.38;12.48;;;8.50;94.30;;;;;;5028778;28;20025;-61
2021/11/22 04:58:11;;;;;;;28.35;13.75;;;8.50;94.30;;;;;;5064800;28;20345;-60
2021/11/22 05:00:37;;;;;;;22.58;12.98;;;8.50;94.30;;;;;;5047192;28;20039;-61
2021/11/22 05:03:04;;;;;;;25.42;13.38;;;8.40;94.20;;;;;;5045859;28;20049;-61
2021/11/22 05:05:29;;;;;;;23.83;12.77;;;8.40;94.10;;;;;;5061761;28;20032;-61
2021/11/22 05:07:55;;;;;;;24.15;12.23;;;8.50;94.10;;;;;;5027087;28;20532;-61
2021/11/22 05:10:22;;;;;;;25.48;12.98;;;8.40;94.10;;;;;;5061983;28;20039;-61
2021/11/22 05:12:48;;;;;;;25.83;12.70;;;8.40;94.10;;;;;;5044556;28;20495;-60
2021/11/22 05:15:14;;;;;;;24.98;12.82;;;8.40;94.20;;;;;;5045257;28;20040;-60
2021/11/22 05:17:41;;;;;;;22.70;12.32;;;8.40;94.20;;;;;;5043144;28;20016;-61
2021/11/22 05:20:06;;;;;;;23.15;12.68;;;8.40;94.10;;;;;;5043704;28;20024;-60
2021/11/22 05:22:32;;;;;;;23.17;12.60;;;8.40;94.10;;;;;;5043768;28;20046;-60
2021/11/22 05:24:57;;;;;;;21.13;12.40;;;8.40;94.40;;;;;;5044064;28;20200;-61
2021/11/22 05:27:27;;;;;;;21.30;12.00;;;8.40;94.30;;;;;;5045621;28;20025;-60
2021/11/22 05:29:53;;;;;;;22.90;12.40;;;8.40;94.00;;;;;;5015383;28;20040;-61
2021/11/22 05:32:19;;;;;;;25.20;12.23;;;8.40;94.00;;;;;;5043239;28;20048;-60
2021/11/22 05:34:47;;;;;;;19.25;11.57;;;8.40;94.10;;;;;;5044040;28;20388;-61
2021/11/22 05:37:12;;;;;;;22.92;12.15;;;8.30;94.00;;;;;;5063044;28;20024;-61
2021/11/22 05:39:38;;;;;;;20.00;12.00;;;8.40;94.00;;;;;;5046944;28;20062;-61
2021/11/22 05:42:04;;;;;;;21.35;11.98;;;8.40;94.00;;;;;;5029805;28;20024;-60
2021/11/22 05:44:32;;;;;;;23.50;12.75;;;8.30;94.00;;;;;;5044664;28;20025;-61
2021/11/22 05:46:58;;;;;;;21.88;11.80;;;8.30;94.00;;;;;;5012536;28;20024;-60
2021/11/22 05:49:23;;;;;;;19.50;11.75;;;8.30;94.00;;;;;;5063215;28;20438;-61
2021/11/22 05:51:49;;;;;;;23.38;12.07;;;8.30;93.90;;;;;;5047597;28;20025;-60
2021/11/22 05:54:15;;;;;;;18.45;12.45;;;8.30;94.00;;;;;;5046260;28;20028;-60
2021/11/22 05:56:41;;;;;;;22.52;12.30;;;8.30;94.00;;;;;;5063030;28;20036;-60
2021/11/22 05:59:07;;;;;;;20.23;12.55;;;8.30;94.00;;;;;;5028387;28;20033;-61
2021/11/22 06:01:32;;;;;;;20.13;12.93;;;8.20;94.00;;;;;;5028220;28;20033;-61
2021/11/22 06:03:58;;;;;;;22.95;12.00;;;8.30;94.00;;;;;;5045584;28;20577;-60
2021/11/22 06:06:24;;;;;;;18.38;12.00;;;8.20;93.90;;;;;;5030024;28;20075;-60
2021/11/22 06:08:49;;;;;;;21.17;13.10;;;8.20;94.00;;;;;;5063933;28;20111;-62
2021/11/22 06:11:15;;;;;;;18.95;11.80;;;8.20;94.00;;;;;;5062603;28;20459;-61
2021/11/22 06:13:40;;;;;;;17.20;11.80;;;8.20;94.00;;;;;;5027542;28;20103;-60
2021/11/22 06:16:06;;;;;;;21.17;12.18;;;8.20;94.00;;;;;;5027084;28;20029;-60
2021/11/22 06:18:31;;;;;;;18.40;11.60;;;8.20;94.00;;;;;;5029029;28;20033;-61
2021/11/22 06:20:57;;;;;;;17.75;11.68;;;8.20;94.00;;;;;;5062268;28;20096;-60
2021/11/22 06:23:22;;;;;;;18.65;11.90;;;8.10;94.00;;;;;;5011550;28;20083;-60
2021/11/22 06:25:48;;;;;;;21.05;12.57;;;8.20;94.00;;;;;;5062184;28;20762;-60
2021/11/22 06:28:14;;;;;;;16.85;11.40;;;8.20;94.00;;;;;;5060491;28;20633;-61
2021/11/22 06:30:40;;;;;;;20.02;12.13;;;8.10;94.00;;;;;;5063950;28;20399;-60
2021/11/22 06:33:06;;;;;;;16.98;11.93;;;7.90;94.00;;;;;;5045805;28;20086;-61
2021/11/22 06:35:33;;;;;;;17.80;11.65;;;8.10;94.10;;;;;;5044757;28;20025;-60
2021/11/22 06:37:58;;;;;;;15.30;11.57;;;8.10;94.00;;;;;;5044131;28;20089;-61
2021/11/22 06:40:24;;;;;;;17.42;11.15;;;8.10;94.00;;;;;;5028005;28;20060;-61
2021/11/22 06:42:49;;;;;;;19.45;11.73;;;8.10;94.10;;;;;;5062964;28;20370;-64
2021/11/22 06:45:15;;;;;;;17.55;11.93;;;8.10;94.10;;;;;;5042043;28;20479;-60
2021/11/22 06:47:40;;;;;;;17.75;12.18;;;8.10;94.10;;;;;;5062601;28;20036;-61
2021/11/22 06:50:06;;;;;;;16.33;11.95;;;8.10;94.30;;;;;;5011563;28;20028;-61
2021/11/22 06:52:32;;;;;;;15.77;11.30;;;8.10;94.00;;;;;;5027553;28;20021;-61
2021/11/22 06:54:57;;;;;;;20.35;11.48;;;8.00;94.00;;;;;;5062188;28;20060;-60
2021/11/22 06:57:23;;;;;;;14.52;10.27;;;8.00;94.00;;;;;;5059758;28;20288;-61
2021/11/22 06:59:49;;;;;;;17.00;11.73;;;8.10;94.10;;;;;;5044257;28;20036;-60
2021/11/22 07:02:16;;;;;;;15.43;11.43;;;8.00;94.00;;;;;;5022659;28;20174;-60
2021/11/22 07:04:42;;;;;;;18.73;10.75;;;8.10;94.00;;;;;;5041601;28;20044;-60
2021/11/22 07:07:08;;;;;;;15.77;11.13;;;8.00;94.00;;;;;;5025595;28;20037;-60
2021/11/22 07:09:33;;;;;;;21.13;11.93;;;8.00;94.00;;;;;;5044592;28;20080;-61
2021/11/22 07:11:59;;;;;;;19.58;11.20;;;8.00;94.00;;;;;;5042879;28;20024;-61
2021/11/22 07:14:24;;;;;;;16.73;10.73;;;8.10;94.10;;;;;;5025952;28;20024;-62
2021/11/22 07:16:52;;;;;;;18.00;11.82;;;8.00;94.00;;;;;;5041645;28;20020;-60
2021/11/22 07:19:17;;;;;;;19.90;12.60;;;8.00;94.10;;;;;;5042832;28;20056;-61
2021/11/22 07:21:43;;;;;;;17.48;11.15;;;8.00;94.00;;;;;;5042402;28;20143;-61
2021/11/22 07:24:08;;;;;;;15.50;11.40;;;8.00;94.00;;;;;;5030621;28;20028;-61
2021/11/22 07:26:34;;;;;;;18.48;11.82;;;8.00;94.00;;;;;;5046069;28;20036;-61
2021/11/22 07:29:00;;;;;;;15.18;10.85;;;8.10;93.90;;;;;;5043829;28;20040;-62
2021/11/22 07:31:25;;;;;;;15.07;11.23;;;8.00;93.90;;;;;;5027676;28;20028;-61
2021/11/22 07:33:51;;;;;;;19.20;11.27;;;8.10;93.90;;;;;;5027223;28;20077;-61
2021/11/22 07:36:16;;;;;;;19.70;11.25;;;8.00;93.90;;;;;;5012608;28;20087;-61
2021/11/22 07:38:42;;;;;;;21.60;12.02;;;8.10;93.90;;;;;;5014253;28;20043;-61
2021/11/22 07:41:07;;;;;;;21.20;11.98;;;8.10;93.90;;;;;;5063825;28;20039;-61
2021/11/22 07:43:33;;;;;;;15.25;11.00;;;8.10;93.90;;;;;;5030720;28;20036;-61
2021/11/22 07:45:59;;;;;;;22.63;10.75;;;8.10;93.90;;;;;;5064463;28;20028;-60
2021/11/22 07:48:24;;;;;;;17.08;10.77;;;8.10;93.80;;;;;;5063613;28;20103;-61
2021/11/22 07:50:50;;;;;;;17.45;11.32;;;8.10;93.90;;;;;;5045453;28;20416;-61
2021/11/22 07:53:16;;;;;;;24.40;11.32;;;8.10;93.80;;;;;;5057458;28;20032;-61
2021/11/22 07:55:41;;;;;;;24.58;11.48;;;8.10;93.80;;;;;;5045701;28;20127;-61
2021/11/22 07:58:07;;;;;;;34.13;11.75;;;8.10;93.80;;;;;;5030441;28;20393;-61
2021/11/22 08:00:32;;;;;;;19.65;11.70;;;8.20;94.00;;;;;;5043834;28;20058;-61
2021/11/22 08:02:58;;;;;;;22.85;11.65;;;8.20;93.90;;;;;;5044172;28;20112;-61
2021/11/22 08:05:24;;;;;;;28.42;12.63;;;8.20;93.80;;;;;;5062540;28;20024;-61
2021/11/22 08:07:53;;;;;;;23.67;12.02;;;8.20;93.80;;;;;;5062551;28;20028;-61
2021/11/22 08:12:47;;;;;;;31.95;11.80;;;8.20;93.90;;;;;;5060155;28;20047;-62
2021/11/22 08:15:13;;;;;;;27.73;12.43;;;8.20;94.00;;;;;;5059803;28;20033;-61
2021/11/22 08:17:40;;;;;;;33.25;12.27;;;8.20;93.90;;;;;;5045016;28;20013;-61
2021/11/22 08:20:10;;;;;;;36.83;11.75;;;8.20;93.90;;;;;;5012325;28;20211;-61
2021/11/22 08:22:35;;;;;;;31.75;12.00;;;8.20;94.00;;;;;;5042901;28;20120;-61
2021/11/22 08:25:01;;;;;;;44.22;12.07;;;8.20;94.00;;;;;;5010647;28;20101;-61
2021/11/22 08:27:28;;;;;;;30.30;12.13;;;8.20;93.90;;;;;;5020956;28;20090;-61
2021/11/22 08:29:54;;;;;;;52.30;12.57;;;8.20;93.90;;;;;;5060918;28;20040;-60
2021/11/22 08:32:20;;;;;;;38.38;12.00;;;8.30;94.00;;;;;;5043643;28;20063;-61
2021/11/22 08:34:45;;;;;;;29.77;12.68;;;8.20;94.00;;;;;;5011233;28;20043;-61
2021/11/22 08:37:11;;;;;;;25.05;13.13;;;8.20;93.90;;;;;;5029076;28;20124;-61
2021/11/22 08:39:36;;;;;;;24.75;11.43;;;8.30;93.80;;;;;;5030266;28;20035;-61
2021/11/22 08:42:03;;;;;;;32.53;11.88;;;8.10;93.80;;;;;;5014347;28;20024;-61
2021/11/22 08:44:30;;;;;;;37.28;12.85;;;8.30;93.90;;;;;;5044202;28;20031;-61
2021/11/22 08:46:55;;;;;;;45.40;13.75;;;8.30;93.90;;;;;;5062224;28;20032;-60
2021/11/22 08:49:21;;;;;;;49.03;14.65;;;8.30;93.90;;;;;;5024702;28;20058;-61
2021/11/22 08:51:46;;;;;;;46.03;13.40;;;8.30;93.90;;;;;;5042838;28;20032;-61
2021/11/22 08:54:12;;;;;;;57.95;15.13;;;8.30;94.00;;;;;;5042111;28;20043;-61
2021/11/22 08:56:37;;;;;;;37.67;11.88;;;8.30;94.00;;;;;;5024542;28;20028;-63
2021/11/22 08:59:03;;;;;;;36.45;12.02;;;8.30;93.90;;;;;;5056160;28;20101;-61
2021/11/22 09:01:29;;;;;;;45.33;13.25;;;8.30;93.90;;;;;;5041743;28;20020;-61
2021/11/22 09:03:55;;;;;;;48.05;13.48;;;8.30;93.90;;;;;;5025777;28;20040;-61
2021/11/22 09:06:20;;;;;;;48.40;14.20;;;8.30;94.00;;;;;;5060349;28;20103;-61
2021/11/22 09:08:46;;;;;;;46.13;13.02;;;8.30;94.00;;;;;;5013656;28;20147;-61
2021/11/22 09:11:12;;;;;;;46.95;13.55;;;8.30;93.90;;;;;;5030400;28;20104;-61
2021/11/22 09:13:39;;;;;;;42.20;13.40;;;8.30;93.90;;;;;;5028566;28;20033;-61
2021/11/22 09:16:05;;;;;;;37.38;13.27;;;8.30;93.90;;;;;;5063512;28;20013;-60
2021/11/22 09:18:30;;;;;;;38.75;13.27;;;8.30;93.90;;;;;;5043076;28;20161;-61
2021/11/22 09:20:56;;;;;;;49.13;14.30;;;8.30;93.90;;;;;;5065691;28;20047;-61
2021/11/22 09:23:21;;;;;;;53.08;13.65;;;8.30;93.90;;;;;;5062709;28;20063;-61
2021/11/22 09:25:47;;;;;;;54.95;15.20;;;8.40;94.00;;;;;;5044968;28;20044;-61
2021/11/22 09:28:12;;;;;;;75.70;14.30;;;8.40;94.00;;;;;;5027476;28;20094;-61
2021/11/22 09:30:38;;;;;;;59.05;14.20;;;8.40;93.90;;;;;;5046770;28;20082;-61
2021/11/22 09:33:04;;;;;;;50.50;13.73;;;8.50;93.90;;;;;;5063498;28;20702;-61
2021/11/22 09:35:30;;;;;;;55.05;13.20;;;8.40;93.90;;;;;;5029279;28;20017;-61
2021/11/22 09:37:55;;;;;;;55.03;14.80;;;8.40;93.80;;;;;;5063314;28;20045;-61
2021/11/22 09:40:21;;;;;;;69.40;14.68;;;8.40;93.80;;;;;;5060821;28;20032;-61
2021/11/22 09:42:47;;;;;;;66.80;15.02;;;8.40;93.80;;;;;;5063486;28;20341;-61
2021/11/22 09:45:13;;;;;;;40.45;12.85;;;8.40;93.80;;;;;;5031347;28;20170;-61
2021/11/22 09:47:38;;;;;;;68.95;14.90;;;8.40;93.70;;;;;;5031168;28;20166;-61
2021/11/22 09:50:07;;;;;;;58.70;14.82;;;8.40;93.80;;;;;;5046665;28;20024;-61
2021/11/22 09:52:33;;;;;;;47.20;14.25;;;8.50;93.80;;;;;;5061105;28;20613;-62
2021/11/22 09:54:58;;;;;;;56.78;13.55;;;8.50;93.80;;;;;;5027655;28;20040;-61
2021/11/22 09:57:24;;;;;;;68.55;14.40;;;8.50;93.80;;;;;;5044667;28;20032;-60
2021/11/22 09:59:49;;;;;;;65.47;14.75;;;8.50;93.80;;;;;;5042943;28;20499;-60
2021/11/22 10:02:15;;;;;;;51.13;14.82;;;8.50;93.80;;;;;;5026884;28;20032;-62
2021/11/22 10:04:41;;;;;;;54.58;14.30;;;8.50;93.80;;;;;;5039637;28;20048;-60
2021/11/22 10:07:07;;;;;;;66.50;15.73;;;8.50;93.70;;;;;;5024832;28;20475;-60
2021/11/22 10:09:33;;;;;;;62.80;14.57;;;8.50;93.70;;;;;;5043218;28;20769;-59
2021/11/22 10:12:16;;;;;;;53.80;14.15;;;8.50;93.70;;;;;;5061928;28;20032;-59
2021/11/22 10:14:56;;;;;;;59.78;13.32;;;8.50;93.70;;;;;;5023721;28;20039;-60
2021/11/22 10:17:22;;;;;;;67.32;14.05;;;8.60;93.80;;;;;;5059705;28;20520;-60
2021/11/22 10:20:10;;;;;;;50.17;14.23;;;8.60;93.80;;;;;;5026040;28;20052;-60
2021/11/22 10:23:06;;;;;;;66.72;14.43;;;8.50;93.80;;;;;;5028143;28;20032;-60
2021/11/22 10:25:37;;;;;;;82.53;15.23;;;8.60;93.90;;;;;;5045305;28;20163;-60
2021/11/22 10:28:15;;;;;;;68.10;14.50;;;8.60;93.80;;;;;;5025600;28;20115;-60
2021/11/22 10:30:55;;;;;;;57.30;14.10;;;8.60;93.90;;;;;;5056939;28;20037;-60
2021/11/22 10:33:22;;;;;;;60.40;14.82;;;8.70;93.80;;;;;;5054212;28;20037;-59
2021/11/22 10:35:49;;;;;;;58.65;14.60;;;8.70;93.80;;;;;;5026623;28;20032;-60
2021/11/22 10:38:16;;;;;;;68.00;15.55;;;8.70;93.80;;;;;;5044752;28;20020;-60
2021/11/22 10:40:51;;;;;;;57.53;14.73;;;8.70;93.70;;;;;;5055686;28;20078;-60
2021/11/22 10:43:17;;;;;;;76.22;15.93;;;8.70;93.70;;;;;;5021677;28;20955;-60
2021/11/22 10:45:48;;;;;;;153.15;20.17;;;8.70;93.70;;;;;;5032876;28;20040;-62
2021/11/22 10:48:31;;;;;;;82.75;15.88;;;8.70;93.80;;;;;;5017131;28;20059;-61
2021/11/22 10:51:07;;;;;;;120.47;17.45;;;8.80;93.80;;;;;;5037341;28;20032;-60
2021/11/22 10:53:36;;;;;;;95.97;16.08;;;8.80;93.80;;;;;;5055577;28;21525;-60
2021/11/22 10:56:03;;;;;;;140.88;20.38;;;8.80;93.70;;;;;;5037833;28;20048;-59
2021/11/22 10:58:39;;;;;;;365.83;40.05;;;8.80;94.00;;;;;;5039119;28;20025;-60
2021/11/22 11:01:16;;;;;;;138.90;20.73;;;8.80;93.80;;;;;;5056896;28;20776;-60
2021/11/22 11:03:58;;;;;;;90.65;16.20;;;8.80;93.80;;;;;;5020709;28;20135;-59
2021/11/22 11:06:53;;;;;;;142.02;18.73;;;8.80;93.80;;;;;;5036673;28;20539;-62
2021/11/22 11:09:33;;;;;;;111.72;18.52;;;8.90;93.80;;;;;;5030396;28;20647;-61
2021/11/22 11:12:05;;;;;;;108.22;19.70;;;8.90;93.80;;;;;;5037895;28;20099;-60
2021/11/22 11:14:31;;;;;;;129.25;18.55;;;8.90;93.80;;;;;;5027787;28;20384;-63
2021/11/22 11:17:18;;;;;;;110.22;18.77;;;8.90;93.70;;;;;;5045413;28;20025;-62
2021/11/22 11:19:44;;;;;;;181.85;21.35;;;8.90;93.60;;;;;;5036971;28;20195;-62
2021/11/22 11:22:10;;;;;;;119.05;18.65;;;9.00;93.60;;;;;;5043387;28;20090;-59
2021/11/22 11:24:36;;;;;;;142.32;18.98;;;9.00;93.60;;;;;;5056873;28;20500;-60
2021/11/22 11:27:02;;;;;;;130.73;20.33;;;9.00;93.90;;;;;;5040436;28;20093;-60
2021/11/22 11:29:27;;;;;;;205.13;25.58;;;9.00;93.70;;;;;;5008487;28;20911;-60
2021/11/22 11:31:54;;;;;;;155.32;23.52;;;9.00;93.70;;;;;;5045653;28;20025;-59
2021/11/22 11:34:20;;;;;;;150.30;20.75;;;9.00;93.70;;;;;;5029846;28;20028;-61
2021/11/22 11:37:06;;;;;;;197.23;24.33;;;9.10;93.70;;;;;;5044890;28;20036;-60
2021/11/22 11:39:38;;;;;;;189.23;24.05;;;9.10;93.70;;;;;;5044967;28;20059;-60
2021/11/22 11:42:44;;;;;;;135.60;20.10;;;9.10;93.60;;;;;;5042870;28;20032;-60
2021/11/22 11:45:22;;;;;;;192.85;25.58;;;9.10;93.60;;;;;;5037087;28;20116;-60
2021/11/22 11:48:12;;;;;;;148.02;21.20;;;9.10;93.60;;;;;;5042395;28;20053;-61
2021/11/22 11:50:41;;;;;;;157.23;22.85;;;9.20;93.60;;;;;;5025829;28;20032;-60
2021/11/22 11:53:08;;;;;;;121.03;18.88;;;9.20;93.60;;;;;;5025758;28;20041;-60
2021/11/22 11:55:34;;;;;;;125.20;21.40;;;9.20;93.50;;;;;;5041800;28;20131;-60
2021/11/22 11:58:15;;;;;;;133.40;19.60;;;9.20;93.50;;;;;;5019284;28;20029;-60
2021/11/22 12:00:57;;;;;;;142.00;20.52;;;9.20;93.40;;;;;;5044343;28;20036;-60
2021/11/22 12:03:23;;;;;;;118.13;18.95;;;9.20;93.40;;;;;;5043754;28;20040;-60
2021/11/22 12:05:50;;;;;;;126.50;21.48;;;9.30;93.40;;;;;;5040488;28;20043;-60
2021/11/22 12:08:33;;;;;;;147.90;20.55;;;9.30;93.40;;;;;;5044930;28;20036;-60
2021/11/22 12:11:03;;;;;;;129.98;19.55;;;9.30;93.40;;;;;;5045954;28;20550;-60
2021/11/22 12:13:49;;;;;;;96.43;17.10;;;9.30;93.30;;;;;;5031005;28;20086;-60
2021/11/22 12:16:40;;;;;;;136.82;20.50;;;9.30;93.30;;;;;;5045631;28;20020;-60
2021/11/22 12:19:34;;;;;;;136.52;19.50;;;9.40;93.40;;;;;;5063542;28;20127;-60
2021/11/22 12:22:09;;;;;;;200.98;27.75;;;9.40;93.30;;;;;;5062995;28;20036;-60
2021/11/22 12:24:39;;;;;;;201.27;25.58;;;9.40;93.40;;;;;;5045749;28;20043;-60
2021/11/22 12:27:26;;;;;;;140.88;21.08;;;9.40;93.40;;;;;;5045404;28;20041;-60
2021/11/22 12:29:52;;;;;;;141.70;20.58;;;9.40;93.40;;;;;;5060706;28;20479;-60
2021/11/22 12:32:32;;;;;;;150.73;21.55;;;9.30;93.30;;;;;;5040547;28;20032;-60
2021/11/22 12:34:59;;;;;;;140.73;20.15;;;9.40;93.30;;;;;;5040501;28;20773;-60
2021/11/22 12:37:33;;;;;;;129.73;21.42;;;9.40;93.40;;;;;;5009463;28;20040;-60
2021/11/22 12:40:14;;;;;;;139.60;21.27;;;9.50;93.30;;;;;;5042555;28;20436;-60
2021/11/22 12:42:47;;;;;;;137.55;19.13;;;9.40;93.20;;;;;;5027668;28;20055;-62